KCHS/CHS METAR and TAF weather

Enter ICAO airport designator
Station Type Date Time Source
KCHS METAR 2021/05/12 01:56 UTC NOAA

KCHS 120156Z 01011KT 10SM SCT015 BKN020 BKN045 21/18 A3007 RMK AO2 LTG DSNT W SLP183 CB DSNT W T02110178


Station Type Date Time Source
KCHS Decoded METAR 2021/05/12 01:56 UTC NOAA

CHARLESTON INT'L AIRPORT, SC, United States (KCHS) 32-54N 080-02W 13M
May 11, 2021 - 09:56 PM EDT / 2021.05.12 0156 UTC
Wind: from the N (010 degrees) at 13 MPH (11 KT):0
Visibility: 10 mile(s):0
Sky conditions: mostly cloudy
Weather: Cumulonimbus clouds, lightning observed
Temperature: 70.0 F (21.1 C)
Dew Point: 64.0 F (17.8 C)
Relative Humidity: 81%
Pressure (altimeter): 30.07 in. Hg (1018 hPa)
ob: KCHS 120156Z 01011KT 10SM SCT015 BKN020 BKN045 21/18 A3007 RMK AO2 LTG DSNT W SLP183 CB DSNT W T02110178
cycle: 2

Station Type Date Time Source
KCHS TAF 2021/05/12 02:55 UTC NOAA

TAF
AMD KCHS 120147Z 1202/1224 10007KT P6SM VCSH SCT020 BKN050
TEMPO 1202/1204 3SM SHRA SCT010 BKN020
FM120500 04007KT 6SM RA BR SCT005 OVC010
TEMPO 1209/1213 BKN005
FM121300 01012KT P6SM VCSH SCT005 OVC010
FM121800 01012G18KT P6SM SCT007 OVC014

Example: see airport list